Aviation Digital Data Service (ADDS)

Output produced by METARs form (0051 UTC 20 April 2019)
found at http://www.aviationweather.gov/metar/data/
 
METAR text: OMAL 200000Z 13005KT CAVOK 27/08 Q1009 NOSIG
Conditions at: OMAL (AL AIN INTNL ARP, AE) observed 0000 UTC 20 April 2019
Temperature: 27.0°C (81°F)
Dewpoint: 8.0°C (46°F) [RH = 30%]
Pressure (altimeter): 29.79 inches Hg (1009.0 mb)
Winds: from the SE (130 degrees) at 6 MPH (5 knots; 2.6 m/s)
Visibility: 6 or more miles (10+ km)
Ceiling: ceiling and visibility are OK
Clouds: unknown
Weather: no significant weather observed at this time

METAR text: OMAL 192300Z 16004KT CAVOK 28/08 Q1010 NOSIG
Conditions at: OMAL (AL AIN INTNL ARP, AE) observed 2300 UTC 19 April 2019
Temperature: 28.0°C (82°F)
Dewpoint: 8.0°C (46°F) [RH = 28%]
Pressure (altimeter): 29.82 inches Hg (1010.0 mb)
Winds: from the SSE (160 degrees) at 5 MPH (4 knots; 2.1 m/s)
Visibility: 6 or more miles (10+ km)
Ceiling: ceiling and visibility are OK
Clouds: unknown
Weather: no significant weather observed at this time

METAR text: OMAL 192200Z 15004KT CAVOK 29/08 Q1010 NOSIG
Conditions at: OMAL (AL AIN INTNL ARP, AE) observed 2200 UTC 19 April 2019
Temperature: 29.0°C (84°F)
Dewpoint: 8.0°C (46°F) [RH = 27%]
Pressure (altimeter): 29.82 inches Hg (1010.0 mb)
Winds: from the SSE (150 degrees) at 5 MPH (4 knots; 2.1 m/s)
Visibility: 6 or more miles (10+ km)
Ceiling: ceiling and visibility are OK
Clouds: unknown
Weather: no significant weather observed at this time

METAR text: OMAL 192100Z 11004KT CAVOK 29/08 Q1010 NOSIG
Conditions at: OMAL (AL AIN INTNL ARP, AE) observed 2100 UTC 19 April 2019
Temperature: 29.0°C (84°F)
Dewpoint: 8.0°C (46°F) [RH = 27%]
Pressure (altimeter): 29.82 inches Hg (1010.0 mb)
Winds: from the ESE (110 degrees) at 5 MPH (4 knots; 2.1 m/s)
Visibility: 6 or more miles (10+ km)
Ceiling: ceiling and visibility are OK
Clouds: unknown
Weather: no significant weather observed at this time

METAR text: OMAL 192000Z 14004KT CAVOK 30/07 Q1011 NOSIG
Conditions at: OMAL (AL AIN INTNL ARP, AE) observed 2000 UTC 19 April 2019
Temperature: 30.0°C (86°F)
Dewpoint: 7.0°C (45°F) [RH = 24%]
Pressure (altimeter): 29.85 inches Hg (1011.0 mb)
Winds: from the SE (140 degrees) at 5 MPH (4 knots; 2.1 m/s)
Visibility: 6 or more miles (10+ km)
Ceiling: ceiling and visibility are OK
Clouds: unknown
Weather: no significant weather observed at this time

METAR text: OMAL 191900Z 13003KT CAVOK 31/07 Q1011 NOSIG
Conditions at: OMAL (AL AIN INTNL ARP, AE) observed 1900 UTC 19 April 2019
Temperature: 31.0°C (88°F)
Dewpoint: 7.0°C (45°F) [RH = 22%]
Pressure (altimeter): 29.85 inches Hg (1011.0 mb)
Winds: from the SE (130 degrees) at 3 MPH (3 knots; 1.5 m/s)
Visibility: 6 or more miles (10+ km)
Ceiling: ceiling and visibility are OK
Clouds: unknown
Weather: no significant weather observed at this time

METAR text: OMAL 191800Z 16003KT CAVOK 31/07 Q1012 BECMG 02006KT
Conditions at: OMAL (AL AIN INTNL ARP, AE) observed 1800 UTC 19 April 2019
Temperature: 31.0°C (88°F)
Dewpoint: 7.0°C (45°F) [RH = 22%]
Pressure (altimeter): 29.88 inches Hg (1012.0 mb)
Winds: from the SSE (160 degrees) at 3 MPH (3 knots; 1.5 m/s)
Visibility: 6 or more miles (10+ km)
Ceiling: ceiling and visibility are OK
Clouds: unknown
Weather: no significant weather observed at this time

METAR text: OMAL 191700Z 20004KT CAVOK 33/06 Q1011 BECMG 02006KT
Conditions at: OMAL (AL AIN INTNL ARP, AE) observed 1700 UTC 19 April 2019
Temperature: 33.0°C (91°F)
Dewpoint: 6.0°C (43°F) [RH = 19%]
Pressure (altimeter): 29.85 inches Hg (1011.0 mb)
Winds: from the SSW (200 degrees) at 5 MPH (4 knots; 2.1 m/s)
Visibility: 6 or more miles (10+ km)
Ceiling: ceiling and visibility are OK
Clouds: unknown
Weather: no significant weather observed at this time

METAR text: OMAL 191600Z 22005KT CAVOK 34/06 Q1011 BECMG 32006KT
Conditions at: OMAL (AL AIN INTNL ARP, AE) observed 1600 UTC 19 April 2019
Temperature: 34.0°C (93°F)
Dewpoint: 6.0°C (43°F) [RH = 18%]
Pressure (altimeter): 29.85 inches Hg (1011.0 mb)
Winds: from the SW (220 degrees) at 6 MPH (5 knots; 2.6 m/s)
Visibility: 6 or more miles (10+ km)
Ceiling: ceiling and visibility are OK
Clouds: unknown
Weather: no significant weather observed at this time

METAR text: OMAL 191500Z 21006KT CAVOK 36/05 Q1010 BECMG 27005KT
Conditions at: OMAL (AL AIN INTNL ARP, AE) observed 1500 UTC 19 April 2019
Temperature: 36.0°C (97°F)
Dewpoint: 5.0°C (41°F) [RH = 15%]
Pressure (altimeter): 29.82 inches Hg (1010.0 mb)
Winds: from the SSW (210 degrees) at 7 MPH (6 knots; 3.1 m/s)
Visibility: 6 or more miles (10+ km)
Ceiling: ceiling and visibility are OK
Clouds: unknown
Weather: no significant weather observed at this time

METAR text: OMAL 191400Z 21005KT CAVOK 36/05 Q1010 NOSIG
Conditions at: OMAL (AL AIN INTNL ARP, AE) observed 1400 UTC 19 April 2019
Temperature: 36.0°C (97°F)
Dewpoint: 5.0°C (41°F) [RH = 15%]
Pressure (altimeter): 29.82 inches Hg (1010.0 mb)
Winds: from the SSW (210 degrees) at 6 MPH (5 knots; 2.6 m/s)
Visibility: 6 or more miles (10+ km)
Ceiling: ceiling and visibility are OK
Clouds: unknown
Weather: no significant weather observed at this time

METAR text: OMAL 191300Z 19009KT 150V230 CAVOK 37/04 Q1010 NOSIG
Conditions at: OMAL (AL AIN INTNL ARP, AE) observed 1300 UTC 19 April 2019
Temperature: 37.0°C (99°F)
Dewpoint: 4.0°C (39°F) [RH = 13%]
Pressure (altimeter): 29.82 inches Hg (1010.0 mb)
Winds: from the S (190 degrees) at 10 MPH (9 knots; 4.6 m/s)
Visibility: 6 or more miles (10+ km)
Ceiling: ceiling and visibility are OK
Clouds: unknown
Weather: no significant weather observed at this time

METAR text: OMAL 191200Z 19007KT 100V240 CAVOK 37/04 Q1010 NOSIG
Conditions at: OMAL (AL AIN INTNL ARP, AE) observed 1200 UTC 19 April 2019
Temperature: 37.0°C (99°F)
Dewpoint: 4.0°C (39°F) [RH = 13%]
Pressure (altimeter): 29.82 inches Hg (1010.0 mb)
Winds: from the S (190 degrees) at 8 MPH (7 knots; 3.6 m/s)
Visibility: 6 or more miles (10+ km)
Ceiling: ceiling and visibility are OK
Clouds: unknown
Weather: no significant weather observed at this time

METAR text: OMAL 191100Z 14008KT 100V180 CAVOK 37/03 Q1011 BECMG 21007KT
Conditions at: OMAL (AL AIN INTNL ARP, AE) observed 1100 UTC 19 April 2019
Temperature: 37.0°C (99°F)
Dewpoint: 3.0°C (37°F) [RH = 12%]
Pressure (altimeter): 29.85 inches Hg (1011.0 mb)
Winds: from the SE (140 degrees) at 9 MPH (8 knots; 4.1 m/s)
Visibility: 6 or more miles (10+ km)
Ceiling: ceiling and visibility are OK
Clouds: unknown
Weather: no significant weather observed at this time

METAR text: OMAL 191000Z 18007KT 150V230 CAVOK 37/03 Q1012 NOSIG
Conditions at: OMAL (AL AIN INTNL ARP, AE) observed 1000 UTC 19 April 2019
Temperature: 37.0°C (99°F)
Dewpoint: 3.0°C (37°F) [RH = 12%]
Pressure (altimeter): 29.88 inches Hg (1012.0 mb)
Winds: from the S (180 degrees) at 8 MPH (7 knots; 3.6 m/s)
Visibility: 6 or more miles (10+ km)
Ceiling: ceiling and visibility are OK
Clouds: unknown
Weather: no significant weather observed at this time

METAR text: OMAL 190900Z 19011KT 150V220 CAVOK 36/03 Q1013 NOSIG
Conditions at: OMAL (AL AIN INTNL ARP, AE) observed 0900 UTC 19 April 2019
Temperature: 36.0°C (97°F)
Dewpoint: 3.0°C (37°F) [RH = 13%]
Pressure (altimeter): 29.91 inches Hg (1013.0 mb)
Winds: from the S (190 degrees) at 13 MPH (11 knots; 5.7 m/s)
Visibility: 6 or more miles (10+ km)
Ceiling: ceiling and visibility are OK
Clouds: unknown
Weather: no significant weather observed at this time

METAR text: OMAL 190800Z 17014KT CAVOK 35/03 Q1014 NOSIG
Conditions at: OMAL (AL AIN INTNL ARP, AE) observed 0800 UTC 19 April 2019
Temperature: 35.0°C (95°F)
Dewpoint: 3.0°C (37°F) [RH = 13%]
Pressure (altimeter): 29.94 inches Hg (1014.0 mb)
Winds: from the S (170 degrees) at 16 MPH (14 knots; 7.2 m/s)
Visibility: 6 or more miles (10+ km)
Ceiling: ceiling and visibility are OK
Clouds: unknown
Weather: no significant weather observed at this time

METAR text: OMAL 190700Z 18013KT CAVOK 34/02 Q1014 NOSIG
Conditions at: OMAL (AL AIN INTNL ARP, AE) observed 0700 UTC 19 April 2019
Temperature: 34.0°C (93°F)
Dewpoint: 2.0°C (36°F) [RH = 13%]
Pressure (altimeter): 29.94 inches Hg (1014.0 mb)
Winds: from the S (180 degrees) at 15 MPH (13 knots; 6.7 m/s)
Visibility: 6 or more miles (10+ km)
Ceiling: ceiling and visibility are OK
Clouds: unknown
Weather: no significant weather observed at this time

METAR text: OMAL 190600Z 18016KT CAVOK 33/03 Q1014 NOSIG
Conditions at: OMAL (AL AIN INTNL ARP, AE) observed 0600 UTC 19 April 2019
Temperature: 33.0°C (91°F)
Dewpoint: 3.0°C (37°F) [RH = 15%]
Pressure (altimeter): 29.94 inches Hg (1014.0 mb)
Winds: from the S (180 degrees) at 18 MPH (16 knots; 8.2 m/s)
Visibility: 6 or more miles (10+ km)
Ceiling: ceiling and visibility are OK
Clouds: unknown
Weather: no significant weather observed at this time

METAR text: OMAL 190500Z 16018KT 8000 NSC 31/04 Q1014 NOSIG
Conditions at: OMAL (AL AIN INTNL ARP, AE) observed 0500 UTC 19 April 2019
Temperature: 31.0°C (88°F)
Dewpoint: 4.0°C (39°F) [RH = 18%]
Pressure (altimeter): 29.94 inches Hg (1014.0 mb)
Winds: from the SSE (160 degrees) at 21 MPH (18 knots; 9.3 m/s)
Visibility: 5 miles ( 8 km)
Ceiling: at least 12,000 feet AGL
Clouds: sky clear below 12,000 feet AGL
Weather: no significant weather observed at this time

METAR text: OMAL 190400Z 16016KT 8000 NSC 29/05 Q1013 NOSIG
Conditions at: OMAL (AL AIN INTNL ARP, AE) observed 0400 UTC 19 April 2019
Temperature: 29.0°C (84°F)
Dewpoint: 5.0°C (41°F) [RH = 22%]
Pressure (altimeter): 29.91 inches Hg (1013.0 mb)
Winds: from the SSE (160 degrees) at 18 MPH (16 knots; 8.2 m/s)
Visibility: 5 miles ( 8 km)
Ceiling: at least 12,000 feet AGL
Clouds: sky clear below 12,000 feet AGL
Weather: no significant weather observed at this time

METAR text: OMAL 190300Z 16009KT CAVOK 27/05 Q1012 NOSIG
Conditions at: OMAL (AL AIN INTNL ARP, AE) observed 0300 UTC 19 April 2019
Temperature: 27.0°C (81°F)
Dewpoint: 5.0°C (41°F) [RH = 24%]
Pressure (altimeter): 29.88 inches Hg (1012.0 mb)
Winds: from the SSE (160 degrees) at 10 MPH (9 knots; 4.6 m/s)
Visibility: 6 or more miles (10+ km)
Ceiling: ceiling and visibility are OK
Clouds: unknown
Weather: no significant weather observed at this time

METAR text: OMAL 190200Z 16007KT CAVOK 26/02 Q1012 NOSIG
Conditions at: OMAL (AL AIN INTNL ARP, AE) observed 0200 UTC 19 April 2019
Temperature: 26.0°C (79°F)
Dewpoint: 2.0°C (36°F) [RH = 21%]
Pressure (altimeter): 29.88 inches Hg (1012.0 mb)
Winds: from the SSE (160 degrees) at 8 MPH (7 knots; 3.6 m/s)
Visibility: 6 or more miles (10+ km)
Ceiling: ceiling and visibility are OK
Clouds: unknown
Weather: no significant weather observed at this time

METAR text: OMAL 190100Z 14006KT CAVOK 27/04 Q1011 NOSIG
Conditions at: OMAL (AL AIN INTNL ARP, AE) observed 0100 UTC 19 April 2019
Temperature: 27.0°C (81°F)
Dewpoint: 4.0°C (39°F) [RH = 23%]
Pressure (altimeter): 29.85 inches Hg (1011.0 mb)
Winds: from the SE (140 degrees) at 7 MPH (6 knots; 3.1 m/s)
Visibility: 6 or more miles (10+ km)
Ceiling: ceiling and visibility are OK
Clouds: unknown
Weather: no significant weather observed at this time

METAR text: OMAL 190000Z 16005KT CAVOK 26/05 Q1011 NOSIG
Conditions at: OMAL (AL AIN INTNL ARP, AE) observed 0000 UTC 19 April 2019
Temperature: 26.0°C (79°F)
Dewpoint: 5.0°C (41°F) [RH = 26%]
Pressure (altimeter): 29.85 inches Hg (1011.0 mb)
Winds: from the SSE (160 degrees) at 6 MPH (5 knots; 2.6 m/s)
Visibility: 6 or more miles (10+ km)
Ceiling: ceiling and visibility are OK
Clouds: unknown
Weather: no significant weather observed at this time

METAR text: OMAL 182300Z 11006KT CAVOK 27/05 Q1011 NOSIG
Conditions at: OMAL (AL AIN INTNL ARP, AE) observed 2300 UTC 18 April 2019
Temperature: 27.0°C (81°F)
Dewpoint: 5.0°C (41°F) [RH = 24%]
Pressure (altimeter): 29.85 inches Hg (1011.0 mb)
Winds: from the ESE (110 degrees) at 7 MPH (6 knots; 3.1 m/s)
Visibility: 6 or more miles (10+ km)
Ceiling: ceiling and visibility are OK
Clouds: unknown
Weather: no significant weather observed at this time

METAR text: OMAL 182200Z 08006KT CAVOK 27/05 Q1011 NOSIG
Conditions at: OMAL (AL AIN INTNL ARP, AE) observed 2200 UTC 18 April 2019
Temperature: 27.0°C (81°F)
Dewpoint: 5.0°C (41°F) [RH = 24%]
Pressure (altimeter): 29.85 inches Hg (1011.0 mb)
Winds: from the E (80 degrees) at 7 MPH (6 knots; 3.1 m/s)
Visibility: 6 or more miles (10+ km)
Ceiling: ceiling and visibility are OK
Clouds: unknown
Weather: no significant weather observed at this time

METAR text: OMAL 182100Z 03009KT CAVOK 27/03 Q1011 BECMG 09006KT
Conditions at: OMAL (AL AIN INTNL ARP, AE) observed 2100 UTC 18 April 2019
Temperature: 27.0°C (81°F)
Dewpoint: 3.0°C (37°F) [RH = 21%]
Pressure (altimeter): 29.85 inches Hg (1011.0 mb)
Winds: from the NNE (30 degrees) at 10 MPH (9 knots; 4.6 m/s)
Visibility: 6 or more miles (10+ km)
Ceiling: ceiling and visibility are OK
Clouds: unknown
Weather: no significant weather observed at this time

METAR text: OMAL 182000Z 01005KT CAVOK 28/03 Q1012 BECMG 07006KT
Conditions at: OMAL (AL AIN INTNL ARP, AE) observed 2000 UTC 18 April 2019
Temperature: 28.0°C (82°F)
Dewpoint: 3.0°C (37°F) [RH = 20%]
Pressure (altimeter): 29.88 inches Hg (1012.0 mb)
Winds: from the N (10 degrees) at 6 MPH (5 knots; 2.6 m/s)
Visibility: 6 or more miles (10+ km)
Ceiling: ceiling and visibility are OK
Clouds: unknown
Weather: no significant weather observed at this time

METAR text: OMAL 181900Z 36006KT CAVOK 29/04 Q1013 BECMG 07006KT
Conditions at: OMAL (AL AIN INTNL ARP, AE) observed 1900 UTC 18 April 2019
Temperature: 29.0°C (84°F)
Dewpoint: 4.0°C (39°F) [RH = 20%]
Pressure (altimeter): 29.91 inches Hg (1013.0 mb)
Winds: from the N (360 degrees) at 7 MPH (6 knots; 3.1 m/s)
Visibility: 6 or more miles (10+ km)
Ceiling: ceiling and visibility are OK
Clouds: unknown
Weather: no significant weather observed at this time

METAR text: OMAL 181800Z 01008KT CAVOK 30/04 Q1012 BECMG 07006KT
Conditions at: OMAL (AL AIN INTNL ARP, AE) observed 1800 UTC 18 April 2019
Temperature: 30.0°C (86°F)
Dewpoint: 4.0°C (39°F) [RH = 19%]
Pressure (altimeter): 29.88 inches Hg (1012.0 mb)
Winds: from the N (10 degrees) at 9 MPH (8 knots; 4.1 m/s)
Visibility: 6 or more miles (10+ km)
Ceiling: ceiling and visibility are OK
Clouds: unknown
Weather: no significant weather observed at this time

METAR text: OMAL 181700Z 36009KT 9000 NSC 31/04 Q1012 BECMG 06006KT
Conditions at: OMAL (AL AIN INTNL ARP, AE) observed 1700 UTC 18 April 2019
Temperature: 31.0°C (88°F)
Dewpoint: 4.0°C (39°F) [RH = 18%]
Pressure (altimeter): 29.88 inches Hg (1012.0 mb)
Winds: from the N (360 degrees) at 10 MPH (9 knots; 4.6 m/s)
Visibility: 6 miles ( 9 km)
Ceiling: at least 12,000 feet AGL
Clouds: sky clear below 12,000 feet AGL
Weather: no significant weather observed at this time

METAR text: OMAL 181600Z 35011KT 8000 NSC 33/02 Q1012 BECMG 05006KT
Conditions at: OMAL (AL AIN INTNL ARP, AE) observed 1600 UTC 18 April 2019
Temperature: 33.0°C (91°F)
Dewpoint: 2.0°C (36°F) [RH = 14%]
Pressure (altimeter): 29.88 inches Hg (1012.0 mb)
Winds: from the N (350 degrees) at 13 MPH (11 knots; 5.7 m/s)
Visibility: 5 miles ( 8 km)
Ceiling: at least 12,000 feet AGL
Clouds: sky clear below 12,000 feet AGL
Weather: no significant weather observed at this time

METAR text: OMAL 181500Z 34013KT 8000 NSC 35/03 Q1011 NOSIG
Conditions at: OMAL (AL AIN INTNL ARP, AE) observed 1500 UTC 18 April 2019
Temperature: 35.0°C (95°F)
Dewpoint: 3.0°C (37°F) [RH = 13%]
Pressure (altimeter): 29.85 inches Hg (1011.0 mb)
Winds: from the NNW (340 degrees) at 15 MPH (13 knots; 6.7 m/s)
Visibility: 5 miles ( 8 km)
Ceiling: at least 12,000 feet AGL
Clouds: sky clear below 12,000 feet AGL
Weather: no significant weather observed at this time

METAR text: OMAL 181400Z 34005KT CAVOK 37/M02 Q1011 NOSIG
Conditions at: OMAL (AL AIN INTNL ARP, AE) observed 1400 UTC 18 April 2019
Temperature: 37.0°C (99°F)
Dewpoint: -2.0°C (28°F) [RH =  8%]
Pressure (altimeter): 29.85 inches Hg (1011.0 mb)
Winds: from the NNW (340 degrees) at 6 MPH (5 knots; 2.6 m/s)
Visibility: 6 or more miles (10+ km)
Ceiling: ceiling and visibility are OK
Clouds: unknown
Weather: no significant weather observed at this time

METAR text: OMAL 181300Z 31007G21KT 280V350 CAVOK 38/M00 Q1011 NOSIG
Conditions at: OMAL (AL AIN INTNL ARP, AE) observed 1300 UTC 18 April 2019
Temperature: 38.0°C (100°F)
Dewpoint: 0.0°C (32°F) [RH =  9%]
Pressure (altimeter): 29.85 inches Hg (1011.0 mb)
Winds: from the NW (310 degrees) at 8 MPH (7 knots; 3.6 m/s)
gusting to 24 MPH (21 knots; 10.8 m/s)
Visibility: 6 or more miles (10+ km)
Ceiling: ceiling and visibility are OK
Clouds: unknown
Weather: no significant weather observed at this time

Forecast for: OMAL (AL AIN INTNL ARP, AE)
Text: TAF OMAL 192300Z 2000/2106 16010KT 8000 NSC
Forecast period: 0000 to 1000 UTC 20 April 2019
Forecast type: FROM: standard forecast or significant change
Winds: from the SSE (160 degrees) at 12 MPH (10 knots; 5.1 m/s)
Visibility: 5 miles (8 km)
Ceiling: unknown
Clouds: missing
Weather: no significant weather forecast for this period
Text: BECMG 2010/2012 24008KT
Forecast period: 1000 to 1600 UTC 20 April 2019
Forecast type: BECOMING: Conditions expected to become as follows by 1200 UTC 20 April 2019
Winds: from the WSW (240 degrees) at 9 MPH (8 knots; 4.1 m/s)
Visibility: 5 miles (8 km)
Ceiling: unknown
Clouds: missing
Weather: no significant weather forecast for this period
Text: BECMG 2016/2018 06008KT
Forecast period: 1600 to 2200 UTC 20 April 2019
Forecast type: BECOMING: Conditions expected to become as follows by 1800 UTC 20 April 2019
Winds: from the ENE (60 degrees) at 9 MPH (8 knots; 4.1 m/s)
Visibility: 5 miles (8 km)
Ceiling: unknown
Clouds: missing
Weather: no significant weather forecast for this period
Text: BECMG 2022/2100 16010KT
Forecast period: 2200 UTC 20 April 2019 to 0600 UTC 21 April 2019
Forecast type: BECOMING: Conditions expected to become as follows by 0000 UTC 21 April 2019
Winds: from the SSE (160 degrees) at 12 MPH (10 knots; 5.1 m/s)
Visibility: 5 miles (8 km)
Ceiling: unknown
Clouds: missing
Weather: no significant weather forecast for this period